Terminal Aerodrome Forecast
Issued by NWS

Home | Current Version | Previous Version | Text Only | Print | Product List | Glossary On
Versions: 1 2 3 4 5 6 7 8 9 10 11 12 13 14
221
FTUS44 KLZK 241139
TAFBPK
TAF
KBPK 241139Z 2412/2512 19004KT P6SM SKC
     FM241500 21010KT P6SM BKN250
     FM250000 17004KT P6SM SCT250
     FM250600 VRB02KT P6SM FEW250=

USA.gov is the U.S. government's official web portal to all federal, state and local government web resources and services.